Time;durP1;ratioP1;P1;durP2;ratioP2;P2;SDS_P1;SDS_P2;PMS_P1;PMS_P2;Temp;Humidity;BMP_temperature;BMP_pressure;BME280_temperature;BME280_humidity;BME280_pressure;Samples;Min_cycle;Max_cycle;Signal;HPM_P1;HPM_P2
2022/07/18 00:00:33;;;;;;;2.08;1.80;;;;;;;22.81;42.26;95265.28;5093794;28;20181;-85
2022/07/18 00:03:00;;;;;;;2.20;2.00;;;;;;;23.45;42.39;95369.09;5093051;28;20212;-86
2022/07/18 00:05:27;;;;;;;3.30;2.20;;;;;;;23.41;42.64;95362.69;5094051;28;20194;-87
2022/07/18 00:07:54;;;;;;;3.22;1.83;;;;;;;22.85;42.53;95288.16;5093602;28;20196;-85
2022/07/18 00:10:21;;;;;;;1.98;1.83;;;;;;;23.01;42.83;95319.09;5092657;28;20641;-86
2022/07/18 00:12:48;;;;;;;4.22;2.05;;;;;;;23.01;42.82;95326.09;5093316;28;20186;-85
2022/07/18 00:15:17;;;;;;;2.22;2.03;;;;;;;23.27;42.75;95367.91;5092826;28;20217;-85
2022/07/18 00:17:44;;;;;;;2.45;2.20;;;;;;;22.54;42.73;95263.44;5092884;28;20206;-87
2022/07/18 00:20:12;;;;;;;2.17;2.00;;;;;;;23.20;42.86;95371.50;5093105;28;21344;-85
2022/07/18 00:22:39;;;;;;;2.42;2.03;;;;;;;23.14;42.67;95361.84;5092853;28;20687;-86
2022/07/18 00:25:07;;;;;;;2.55;2.25;;;;;;;22.75;43.13;95305.97;5092887;28;20571;-86
2022/07/18 00:27:34;;;;;;;2.20;2.10;;;;;;;21.33;42.95;95092.31;5092845;28;20209;-86
2022/07/18 00:30:02;;;;;;;2.28;2.10;;;;;;;23.04;42.52;95362.22;5093103;28;20578;-86
2022/07/18 00:32:31;;;;;;;2.40;2.20;;;;;;;23.02;42.45;95359.84;5095379;28;20199;-86
2022/07/18 00:34:58;;;;;;;4.60;2.50;;;;;;;22.78;42.54;95331.66;5098816;28;20232;-85
2022/07/18 00:37:25;;;;;;;2.70;2.00;;;;;;;22.96;42.62;95362.41;5106129;28;20231;-87
2022/07/18 00:39:52;;;;;;;6.65;2.30;;;;;;;22.56;42.61;95291.91;5115641;28;20191;-85
2022/07/18 00:42:19;;;;;;;2.13;1.92;;;;;;;22.90;42.54;95358.00;5115198;28;20200;-87
2022/07/18 00:44:46;;;;;;;2.50;2.10;;;;;;;22.87;42.36;95358.34;5105673;28;20185;-87
2022/07/18 00:47:12;;;;;;;4.53;1.90;;;;;;;22.84;42.43;95350.91;5115924;28;20236;-85
2022/07/18 00:49:41;;;;;;;1.73;1.63;;;;;;;22.01;42.19;95231.16;5106949;28;20190;-84
2022/07/18 00:52:08;;;;;;;2.53;1.80;;;;;;;21.89;42.30;95219.69;5114997;28;20196;-86
2022/07/18 00:54:35;;;;;;;2.20;2.00;;;;;;;22.01;42.23;95254.59;5117851;28;20198;-87
2022/07/18 00:57:02;;;;;;;2.22;2.03;;;;;;;22.50;42.11;95327.38;5116093;28;20221;-87
2022/07/18 01:02:10;;;;;;;2.35;1.90;;;;;;;21.20;42.16;95137.25;5106614;28;20217;-86
2022/07/18 01:04:37;;;;;;;2.45;1.90;;;;;;;22.05;42.07;95276.66;5105298;28;20250;-85
2022/07/18 01:07:06;;;;;;;2.28;2.03;;;;;;;22.60;42.09;95367.91;5099511;28;20197;-86
2022/07/18 01:09:33;;;;;;;3.55;2.00;;;;;;;22.02;42.06;95280.47;5094805;28;20185;-88
2022/07/18 01:12:01;;;;;;;1.80;1.70;;;;;;;20.58;42.12;95058.31;5093162;28;20798;-87
2022/07/18 01:14:28;;;;;;;1.80;1.70;;;;;;;22.51;41.96;95362.88;5094599;28;20181;-87
2022/07/18 01:16:55;;;;;;;3.05;2.00;;;;;;;22.19;42.19;95314.84;5093446;28;20210;-85
2022/07/18 01:19:22;;;;;;;2.10;1.90;;;;;;;22.30;42.00;95331.72;5099441;28;20205;-85
2022/07/18 01:21:51;;;;;;;2.10;2.00;;;;;;;22.42;41.80;95363.25;5108007;28;20189;-86
2022/07/18 01:24:17;;;;;;;2.05;1.83;;;;;;;21.98;41.66;95296.69;5093833;28;20204;-88
2022/07/18 01:26:44;;;;;;;2.00;1.90;;;;;;;20.96;41.64;95146.34;5093750;28;20189;-86
2022/07/18 01:29:11;;;;;;;2.88;2.03;;;;;;;21.80;41.78;95278.94;5095474;28;20181;-87
2022/07/18 01:31:38;;;;;;;1.63;1.52;;;;;;;22.33;41.85;95356.59;5097189;28;20193;-87
2022/07/18 01:34:05;;;;;;;1.98;1.80;;;;;;;21.82;41.51;95283.97;5097671;28;20186;-86
2022/07/18 01:36:32;;;;;;;3.72;1.63;;;;;;;22.29;41.59;95356.97;5098835;28;20210;-86
2022/07/18 01:39:00;;;;;;;1.83;1.73;;;;;;;22.28;41.77;95354.56;5098140;28;20262;-87
2022/07/18 01:41:28;;;;;;;2.45;1.80;;;;;;;22.19;41.75;95345.28;5098924;28;20177;-86
2022/07/18 01:43:55;;;;;;;1.90;1.80;;;;;;;22.22;41.77;95348.31;5096062;28;20189;-87
2022/07/18 01:46:22;;;;;;;1.75;1.65;;;;;;;20.63;41.87;95107.94;5093532;28;20227;-88
2022/07/18 01:48:50;;;;;;;1.98;1.80;;;;;;;21.36;41.76;95233.25;5091644;28;20553;-85
2022/07/18 01:51:19;;;;;;;3.50;1.90;;;;;;;22.11;42.13;95353.25;5093646;28;20826;-88
2022/07/18 01:53:58;;;;;;;1.92;1.60;;;;;;;20.57;41.86;95103.50;5115406;28;20178;-87
2022/07/18 01:56:27;;;;;;;2.10;1.90;;;;;;;22.02;41.83;95335.19;5117245;28;20236;-86
2022/07/18 01:58:54;;;;;;;2.05;1.70;;;;;;;21.99;41.91;95338.16;5116840;28;20173;-87
2022/07/18 02:01:21;;;;;;;2.10;1.90;;;;;;;20.79;41.98;95164.03;5115370;28;20217;-87
2022/07/18 02:03:48;;;;;;;2.10;1.50;;;;;;;21.79;41.89;95319.00;5110045;28;20201;-87
2022/07/18 02:06:15;;;;;;;4.22;1.67;;;;;;;21.93;41.90;95343.31;5108863;28;20189;-86
2022/07/18 02:08:44;;;;;;;2.80;2.22;;;;;;;21.50;41.81;95280.97;5112797;28;20257;-86
2022/07/18 02:11:11;;;;;;;5.97;1.98;;;;;;;21.86;41.74;95351.09;5111789;28;20193;-87
2022/07/18 02:13:39;;;;;;;3.25;2.00;;;;;;;20.49;41.75;95137.41;5111363;28;20229;-87
2022/07/18 02:16:07;;;;;;;1.40;1.35;;;;;;;21.82;41.62;95349.88;5101320;28;20644;-87
2022/07/18 02:18:34;;;;;;;2.17;1.90;;;;;;;21.58;41.46;95321.69;5096479;28;20219;-87
2022/07/18 02:21:01;;;;;;;1.93;1.80;;;;;;;20.43;41.42;95138.16;5098416;28;20275;-86
2022/07/18 02:23:28;;;;;;;2.37;1.70;;;;;;;20.99;41.54;95230.00;5094860;28;20273;-88
2022/07/18 02:25:55;;;;;;;3.20;1.70;;;;;;;20.97;41.31;95234.56;5095660;28;20217;-87
2022/07/18 02:28:31;;;;;;;1.65;1.55;;;;;;;20.65;41.25;95191.72;5093997;28;20193;-87
2022/07/18 02:31:14;;;;;;;1.80;1.70;;;;;;;21.65;41.41;95351.97;5093235;28;20208;-87
2022/07/18 02:33:41;;;;;;;3.78;1.60;;;;;;;20.27;41.22;95141.78;5092445;28;20186;-86
2022/07/18 02:36:08;;;;;;;2.13;1.50;;;;;;;19.83;41.15;95085.66;5091784;28;20289;-87
2022/07/18 02:38:35;;;;;;;2.90;1.83;;;;;;;21.57;41.06;95359.91;5091533;28;20623;-86
2022/07/18 02:41:03;;;;;;;2.10;1.60;;;;;;;20.84;41.12;95247.47;5091035;28;20194;-86
2022/07/18 02:43:30;;;;;;;1.97;1.77;;;;;;;21.53;41.24;95376.91;5091760;28;20194;-86
2022/07/18 02:45:58;;;;;;;2.53;2.00;;;;;;;21.52;41.02;95383.13;5093554;28;20230;-88
2022/07/18 02:48:25;;;;;;;4.07;2.00;;;;;;;21.22;41.44;95341.59;5095716;28;20194;-89
2022/07/18 02:50:52;;;;;;;2.07;1.43;;;;;;;21.44;41.29;95378.84;5095200;28;20590;-86
2022/07/18 02:53:23;;;;;;;3.30;1.87;;;;;;;21.17;40.98;95343.97;5095587;28;20190;-88
2022/07/18 02:55:50;;;;;;;2.50;1.80;;;;;;;21.39;41.26;95383.00;5095819;28;20201;-85
2022/07/18 02:58:17;;;;;;;1.87;1.77;;;;;;;21.35;41.28;95382.56;5095461;28;20221;-85
2022/07/18 03:00:44;;;;;;;1.87;1.60;;;;;;;21.33;41.45;95375.94;5095332;28;20207;-85
2022/07/18 03:03:13;;;;;;;2.63;1.97;;;;;;;20.80;41.16;95298.22;5096274;28;20200;-86
2022/07/18 03:05:41;;;;;;;1.60;1.50;;;;;;;20.31;41.12;95231.34;5096394;28;20228;-86
2022/07/18 03:08:08;;;;;;;2.08;1.88;;;;;;;20.96;41.11;95341.38;5093462;28;20205;-86
2022/07/18 03:10:35;;;;;;;1.87;1.73;;;;;;;21.23;41.05;95384.84;5094482;28;20253;-86
2022/07/18 03:13:02;;;;;;;2.43;1.90;;;;;;;21.22;41.00;95388.44;5102261;28;20186;-85
2022/07/18 03:15:29;;;;;;;1.93;1.70;;;;;;;21.20;40.94;95387.81;5094343;28;20208;-86
2022/07/18 03:17:58;;;;;;;1.60;1.50;;;;;;;21.18;41.05;95389.78;5094277;28;20221;-86
2022/07/18 03:20:26;;;;;;;1.63;1.50;;;;;;;20.93;41.07;95350.34;5094320;27;20213;-87
2022/07/18 03:22:53;;;;;;;1.60;1.50;;;;;;;21.19;41.32;95394.00;5093456;28;20852;-85
2022/07/18 03:25:20;;;;;;;1.83;1.73;;;;;;;21.17;41.40;95393.41;5094043;28;20182;-86
2022/07/18 03:27:47;;;;;;;2.07;1.50;;;;;;;20.45;41.69;95282.44;5094107;28;20288;-85
2022/07/18 03:30:14;;;;;;;5.00;2.00;;;;;;;21.13;41.50;95397.34;5094011;28;20186;-86
2022/07/18 03:32:41;;;;;;;1.90;1.70;;;;;;;21.13;41.65;95393.94;5094692;28;20216;-85
2022/07/18 03:35:08;;;;;;;1.97;1.70;;;;;;;21.11;41.59;95388.13;5109323;28;20178;-86
2022/07/18 03:37:37;;;;;;;4.37;1.97;;;;;;;21.09;41.58;95380.50;5101291;28;20225;-84
2022/07/18 03:40:05;;;;;;;2.83;1.70;;;;;;;21.08;41.40;95373.72;5094168;28;20193;-87
2022/07/18 03:42:33;;;;;;;2.13;1.80;;;;;;;19.28;41.39;95102.59;5094692;28;20216;-87
2022/07/18 03:45:00;;;;;;;3.57;1.87;;;;;;;20.93;41.36;95358.13;5092675;28;20198;-86
2022/07/18 03:47:27;;;;;;;2.50;1.70;;;;;;;21.10;41.37;95389.91;5104179;28;20229;-86
2022/07/18 03:49:54;;;;;;;3.13;1.70;;;;;;;21.12;41.33;95392.34;5105245;28;20232;-86
2022/07/18 03:52:21;;;;;;;9.43;1.73;;;;;;;21.12;41.12;95384.53;5095913;28;20197;-86
2022/07/18 03:54:49;;;;;;;2.10;1.80;;;;;;;19.88;41.25;95192.34;5093268;28;20182;-87
2022/07/18 03:57:16;;;;;;;1.87;1.40;;;;;;;20.74;40.94;95336.16;5092522;28;20217;-86
2022/07/18 03:59:43;;;;;;;3.27;1.83;;;;;;;21.17;41.21;95384.78;5092838;28;20197;-87
2022/07/18 04:02:10;;;;;;;4.00;2.07;;;;;;;19.91;41.20;95189.38;5093343;28;20194;-85
2022/07/18 04:04:37;;;;;;;2.13;1.93;;;;;;;19.92;41.20;95197.97;5092471;28;20289;-85
2022/07/18 04:07:04;;;;;;;2.00;1.73;;;;;;;21.04;41.13;95365.47;5093001;28;20198;-85
2022/07/18 04:09:31;;;;;;;4.47;1.90;;;;;;;20.28;41.13;95248.09;5092591;28;20509;-86
2022/07/18 04:11:59;;;;;;;3.63;1.83;;;;;;;21.29;40.92;95401.50;5093344;28;20178;-85
2022/07/18 04:14:26;;;;;;;3.77;2.60;;;;;;;20.71;41.24;95310.53;5092528;28;20190;-86
2022/07/18 04:16:53;;;;;;;5.47;1.80;;;;;;;20.47;41.25;95254.50;5092384;28;20244;-85
2022/07/18 04:19:21;;;;;;;3.00;2.10;;;;;;;21.08;40.96;95344.28;5092483;28;20190;-85
2022/07/18 04:21:48;;;;;;;4.90;2.17;;;;;;;21.01;41.17;95341.63;5092752;28;20289;-86
2022/07/18 04:24:16;;;;;;;4.03;1.90;;;;;;;21.10;41.12;95355.31;5092798;28;20186;-85
2022/07/18 04:26:43;;;;;;;2.73;1.80;;;;;;;21.48;41.03;95400.91;5094374;28;20193;-86
2022/07/18 04:29:11;;;;;;;6.57;2.10;;;;;;;21.28;41.17;95361.66;5099298;28;20198;-85
2022/07/18 04:31:39;;;;;;;6.60;2.00;;;;;;;21.58;41.03;95391.97;5100707;28;20192;-85
2022/07/18 04:34:05;;;;;;;2.10;1.90;;;;;;;20.89;41.05;95284.09;5100745;28;20181;-86
2022/07/18 04:36:37;;;;;;;6.13;2.03;;;;;;;20.63;41.10;95237.06;5093693;28;20190;-86
2022/07/18 04:39:04;;;;;;;4.67;2.40;;;;;;;21.69;41.63;95394.84;5093101;28;20225;-85
2022/07/18 04:41:32;;;;;;;9.80;2.03;;;;;;;21.73;41.58;95385.69;5093505;28;20185;-85
2022/07/18 04:43:59;;;;;;;3.67;1.77;;;;;;;21.77;41.63;95380.91;5093102;28;20186;-89
2022/07/18 04:46:27;;;;;;;5.87;2.40;;;;;;;21.83;41.60;95389.75;5092699;28;20243;-87
2022/07/18 04:48:54;;;;;;;4.50;1.80;;;;;;;20.09;41.82;95112.88;5093290;28;20657;-87
2022/07/18 04:51:22;;;;;;;6.43;1.95;;;;;;;21.91;41.70;95376.56;5092959;28;20700;-87
2022/07/18 04:53:49;;;;;;;4.20;1.80;;;;;;;21.95;41.64;95375.19;5093214;28;20202;-88
2022/07/18 04:56:16;;;;;;;5.43;2.10;;;;;;;22.00;41.68;95385.84;5097609;28;20196;-87
2022/07/18 04:58:42;;;;;;;3.83;1.90;;;;;;;20.17;41.65;95091.97;5107727;28;20221;-87
2022/07/18 05:01:09;;;;;;;3.25;1.80;;;;;;;21.14;41.92;95234.28;5109331;28;20200;-87
2022/07/18 05:03:38;;;;;;;3.67;2.20;;;;;;;22.14;41.91;95378.94;5109327;28;20641;-87
2022/07/18 05:06:05;;;;;;;5.07;2.17;;;;;;;22.21;41.40;95382.38;5109576;28;20194;-85
2022/07/18 05:08:32;;;;;;;2.58;1.88;;;;;;;21.55;41.37;95273.44;5108845;28;20197;-86
2022/07/18 05:10:59;;;;;;;2.58;1.80;;;;;;;22.29;40.82;95380.44;5106627;28;20189;-84
2022/07/18 05:13:26;;;;;;;8.32;1.77;;;;;;;22.18;40.05;95343.69;5104215;28;20208;-86
2022/07/18 05:15:52;;;;;;;5.85;1.63;;;;;;;22.61;39.93;95379.94;5104521;28;20192;-83
2022/07/18 05:18:19;;;;;;;6.00;1.98;;;;;;;23.04;56.87;95380.50;5094608;28;20232;-83
2022/07/18 05:20:48;;;;;;;1.77;1.60;;;;;;;23.57;55.11;95388.38;5093214;28;20189;-85
2022/07/18 05:23:16;;;;;;;4.53;2.05;;;;;;;24.16;52.81;95382.28;5096412;28;20201;-85
2022/07/18 05:25:43;;;;;;;4.47;2.08;;;;;;;23.96;48.97;95253.50;5093005;28;20677;-82
2022/07/18 05:28:10;;;;;;;2.72;1.33;;;;;;;24.75;46.74;95289.75;5094943;28;20194;-83
2022/07/18 05:30:39;;;;;;;2.97;1.65;;;;;;;25.64;44.95;95328.94;5095280;28;20182;-85
2022/07/18 05:33:06;;;;;;;3.72;1.90;;;;;;;26.55;43.79;95380.66;5093080;28;20186;-84
2022/07/18 05:35:36;;;;;;;2.83;1.73;;;;;;;26.62;41.72;95321.03;5091382;28;20178;-86
2022/07/18 05:38:04;;;;;;;4.10;1.95;;;;;;;27.48;40.17;95392.56;5091421;28;20232;-87
2022/07/18 05:40:32;;;;;;;3.70;1.60;;;;;;;27.65;39.66;95375.09;5091483;28;20664;-84
2022/07/18 05:42:58;;;;;;;4.90;2.00;;;;;;;27.99;33.74;95391.94;5091816;28;20225;-88
2022/07/18 05:45:29;;;;;;;5.53;1.42;;;;;;;28.22;33.73;95398.22;5091798;28;20644;-85
2022/07/18 05:47:56;;;;;;;3.42;1.45;;;;;;;28.45;34.14;95400.03;5096873;28;20197;-85
2022/07/18 05:50:24;;;;;;;3.50;1.40;;;;;;;28.64;33.02;95404.13;5091938;28;20186;-85
2022/07/18 05:52:51;;;;;;;4.97;1.95;;;;;;;28.90;32.41;95396.72;5091667;28;20189;-85
2022/07/18 05:55:20;;;;;;;2.35;1.85;;;;;;;28.88;31.93;95352.16;5093483;28;20189;-84
2022/07/18 05:57:47;;;;;;;2.03;1.70;;;;;;;29.19;30.23;95350.91;5093225;28;20236;-86
2022/07/18 06:00:15;;;;;;;6.50;1.85;;;;;;;29.66;31.39;95370.88;5091922;28;20192;-86
2022/07/18 06:02:42;;;;;;;1.83;1.73;;;;;;;30.08;30.39;95397.63;5091212;28;20193;-84
2022/07/18 06:05:11;;;;;;;3.22;1.67;;;;;;;30.21;30.72;95381.47;5090693;28;20189;-84
2022/07/18 06:07:38;;;;;;;9.88;2.28;;;;;;;30.16;30.47;95331.28;5093578;28;20186;-83
2022/07/18 06:10:06;;;;;;;8.95;2.15;;;;;;;30.49;31.51;95340.13;5098906;28;20197;-84
2022/07/18 06:12:34;;;;;;;3.75;2.10;;;;;;;31.05;30.88;95392.78;5096558;28;20759;-86
2022/07/18 06:15:03;;;;;;;7.32;1.65;;;;;;;31.14;30.24;95378.88;5084992;28;20190;-89
2022/07/18 06:17:33;;;;;;;14.25;1.70;;;;;;;31.18;30.98;95348.25;5092971;28;20198;-85
2022/07/18 06:20:00;;;;;;;3.13;1.95;;;;;;;31.39;30.31;95333.38;5094063;28;20200;-85
2022/07/18 06:22:27;;;;;;;2.65;1.65;;;;;;;30.94;30.46;95225.44;5095137;28;20194;-86
2022/07/18 06:24:54;;;;;;;2.63;1.55;;;;;;;31.56;29.43;95304.13;5097038;28;20209;-86
2022/07/18 06:27:21;;;;;;;11.55;2.05;;;;;;;32.45;28.91;95405.78;5099486;28;20178;-88
2022/07/18 06:29:49;;;;;;;3.10;1.70;;;;;;;32.48;28.66;95376.16;5078165;28;20183;-82
2022/07/18 06:32:16;;;;;;;3.92;2.03;;;;;;;32.80;27.41;95405.13;5084574;28;20303;-85
2022/07/18 06:34:43;;;;;;;4.10;1.75;;;;;;;31.60;28.12;95190.72;5097387;28;20182;-83
2022/07/18 06:37:10;;;;;;;1.98;1.67;;;;;;;33.16;27.63;95399.94;5094801;28;20220;-87
2022/07/18 06:39:37;;;;;;;2.10;1.58;;;;;;;32.04;27.31;95198.31;5095983;28;20213;-84
2022/07/18 06:42:04;;;;;;;1.60;1.45;;;;;;;33.51;27.20;95401.91;5094913;28;20674;-85
2022/07/18 06:44:31;;;;;;;1.50;1.40;;;;;;;33.58;26.57;95398.97;5096310;28;20194;-87
2022/07/18 06:46:59;;;;;;;3.63;1.77;;;;;;;33.66;26.09;95393.13;5095643;28;20237;-86
2022/07/18 06:49:26;;;;;;;1.75;1.20;;;;;;;33.31;26.00;95316.97;5096785;28;20182;-87
2022/07/18 06:51:53;;;;;;;1.92;1.50;;;;;;;33.30;25.80;95308.25;5094286;28;20581;-88
2022/07/18 06:54:26;;;;;;;4.22;1.52;;;;;;;33.03;25.83;95255.47;5093700;28;20213;-86
2022/07/18 06:56:53;;;;;;;2.85;1.58;;;;;;;32.96;26.20;95221.28;5093833;28;20268;-85
2022/07/18 06:59:19;;;;;;;4.72;1.63;;;;;;;34.02;25.96;95382.50;5092802;28;20228;-87
2022/07/18 07:01:47;;;;;;;2.45;1.60;;;;;;;33.93;25.09;95376.91;5092947;28;20189;-86
2022/07/18 07:04:15;;;;;;;2.50;1.75;;;;;;;33.77;25.95;95354.13;5093239;28;20193;-86
2022/07/18 07:06:44;;;;;;;2.13;1.63;;;;;;;33.97;25.99;95378.00;5092773;28;20185;-85
2022/07/18 07:09:11;;;;;;;2.35;1.55;;;;;;;33.97;25.41;95371.88;5094288;28;20245;-86
2022/07/18 07:11:38;;;;;;;6.28;2.05;;;;;;;34.01;26.09;95362.31;5093603;28;20189;-87
2022/07/18 07:14:05;;;;;;;3.75;1.70;;;;;;;33.78;25.96;95311.38;5093457;28;20197;-87
2022/07/18 07:16:32;;;;;;;1.92;1.67;;;;;;;34.07;25.29;95345.31;5093212;28;20193;-85
2022/07/18 07:18:59;;;;;;;7.80;1.70;;;;;;;32.84;25.10;95145.75;5092779;28;20222;-87
2022/07/18 07:21:27;;;;;;;7.13;1.55;;;;;;;34.22;24.99;95368.38;5092878;28;20190;-86
2022/07/18 07:23:55;;;;;;;2.75;1.35;;;;;;;34.00;24.33;95350.13;5093347;28;20194;-87
2022/07/18 07:26:22;;;;;;;4.03;1.40;;;;;;;33.05;23.94;95216.25;5093417;28;20186;-86
2022/07/18 07:28:49;;;;;;;1.70;1.20;;;;;;;32.71;23.81;95178.88;5092687;28;20290;-86
2022/07/18 07:31:16;;;;;;;3.70;1.50;;;;;;;33.70;23.49;95335.81;5091948;28;20186;-86
2022/07/18 07:33:45;;;;;;;5.15;1.63;;;;;;;32.99;24.16;95248.31;5092289;28;20177;-87
2022/07/18 07:36:12;;;;;;;4.93;1.50;;;;;;;33.61;23.35;95371.91;5092313;28;20200;-87
2022/07/18 07:38:41;;;;;;;3.08;1.27;;;;;;;33.18;22.95;95368.69;5092805;28;20217;-87
2022/07/18 07:41:08;;;;;;;2.85;1.63;;;;;;;32.61;23.60;95285.63;5093265;28;20194;-87
2022/07/18 07:43:38;;;;;;;2.63;1.63;;;;;;;33.04;23.77;95368.41;5091797;28;20197;-86
2022/07/18 07:46:05;;;;;;;5.20;1.45;;;;;;;31.77;23.46;95201.88;5092257;27;20225;-86
2022/07/18 07:48:32;;;;;;;1.83;1.52;;;;;;;32.91;23.93;95369.69;5092006;28;20236;-87
2022/07/18 07:51:03;;;;;;;1.90;1.60;;;;;;;32.15;23.77;95240.44;5092354;28;20186;-87
2022/07/18 07:53:30;;;;;;;1.77;1.40;;;;;;;32.86;23.48;95371.50;5091615;28;20189;-86
2022/07/18 07:55:58;;;;;;;3.28;1.42;;;;;;;32.76;23.09;95352.94;5091087;28;20198;-87
2022/07/18 07:58:25;;;;;;;1.50;1.30;;;;;;;32.12;23.92;95248.09;5091593;28;20565;-86
2022/07/18 08:00:52;;;;;;;1.67;1.42;;;;;;;32.99;23.02;95381.66;5092201;28;20185;-86
2022/07/18 08:03:19;;;;;;;1.67;1.50;;;;;;;32.99;22.94;95380.81;5091571;28;20188;-85
2022/07/18 08:05:49;;;;;;;3.50;1.38;;;;;;;32.52;23.35;95310.22;5092328;28;20208;-90
2022/07/18 08:08:16;;;;;;;2.92;1.40;;;;;;;32.50;22.99;95296.44;5095151;28;20190;-90
2022/07/18 08:10:44;;;;;;;1.50;1.40;;;;;;;32.85;23.64;95346.06;5096602;28;20204;-88
2022/07/18 08:13:24;;;;;;;1.40;1.30;;;;;;;32.16;23.87;95215.56;5072924;28;20936;-88
2022/07/18 08:15:51;;;;;;;1.90;1.25;;;;;;;33.29;24.37;95377.44;5073266;28;20226;-89
2022/07/18 08:18:18;;;;;;;1.67;1.30;;;;;;;33.35;24.22;95371.88;5081417;28;20204;-87
2022/07/18 08:20:45;;;;;;;1.30;1.15;;;;;;;33.33;23.67;95371.31;5074072;28;20190;-87
2022/07/18 08:23:12;;;;;;;1.63;1.30;;;;;;;32.92;23.37;95312.97;5084854;28;20204;-87
2022/07/18 08:25:40;;;;;;;1.67;1.58;;;;;;;33.28;23.89;95357.28;5077587;28;20206;-88
2022/07/18 08:28:08;;;;;;;1.92;1.77;;;;;;;32.88;24.19;95293.34;5082957;28;20190;-86
2022/07/18 08:30:39;;;;;;;2.25;1.48;;;;;;;33.02;24.15;95319.34;5084568;28;20614;-91
2022/07/18 08:33:07;;;;;;;3.22;1.48;;;;;;;32.83;24.00;95292.53;5075813;28;20186;-91
2022/07/18 08:35:34;;;;;;;1.65;1.40;;;;;;;33.42;23.72;95377.72;5074755;28;20197;-87
2022/07/18 08:38:01;;;;;;;2.85;1.50;;;;;;;33.45;23.38;95382.50;5072597;28;20607;-87
2022/07/18 08:40:29;;;;;;;1.58;1.40;;;;;;;33.12;23.08;95322.81;5084025;28;20224;-90
2022/07/18 08:42:57;;;;;;;1.85;1.10;;;;;;;33.50;22.94;95383.56;5082717;28;20201;-89
2022/07/18 08:45:26;;;;;;;1.42;1.30;;;;;;;33.16;23.08;95320.41;5073103;28;20190;-89
2022/07/18 08:47:54;;;;;;;1.85;1.45;;;;;;;33.24;23.44;95330.50;5073609;28;20204;-85
2022/07/18 08:50:21;;;;;;;1.77;1.42;;;;;;;32.78;23.50;95253.59;5069528;28;20216;-85
2022/07/18 08:52:49;;;;;;;2.72;1.63;;;;;;;33.53;22.88;95367.13;5072632;28;20194;-87
2022/07/18 08:55:20;;;;;;;3.03;1.50;;;;;;;32.72;22.98;95246.69;5069689;28;20190;-88
2022/07/18 08:57:47;;;;;;;1.63;1.42;;;;;;;33.30;23.31;95333.97;5069835;28;20189;-89
2022/07/18 09:00:15;;;;;;;5.35;2.33;;;;;;;32.56;23.24;95223.91;5068793;28;20707;-86
2022/07/18 09:02:42;;;;;;;1.80;1.70;;;;;;;33.44;23.25;95378.28;5071417;28;20218;-85
2022/07/18 09:05:23;;;;;;;3.00;1.90;;;;;;;33.04;23.82;95311.94;5073839;28;20233;-90
2022/07/18 09:07:50;;;;;;;5.13;4.35;;;;;;;32.62;23.70;95254.63;5074769;28;20179;-92
2022/07/18 09:10:17;;;;;;;3.58;3.22;;;;;;;32.92;24.08;95307.69;5072673;28;20315;-87
2022/07/18 09:12:58;;;;;;;4.13;2.55;;;;;;;31.88;24.32;95148.00;5070571;28;20201;-87
2022/07/18 09:15:27;;;;;;;2.67;2.42;;;;;;;33.13;24.48;95363.38;5099575;28;20220;-88
2022/07/18 09:17:57;;;;;;;2.13;1.98;;;;;;;33.04;24.33;95359.66;5101542;28;20205;-87
2022/07/18 09:20:26;;;;;;;3.22;2.30;;;;;;;32.67;24.72;95329.59;5103213;28;20309;-87
2022/07/18 09:22:52;;;;;;;4.38;2.15;;;;;;;32.79;24.98;95355.84;5099560;28;20198;-86
2022/07/18 09:25:21;;;;;;;3.45;2.30;;;;;;;32.81;24.98;95366.19;5089171;28;20189;-85
2022/07/18 09:27:51;;;;;;;1.85;1.73;;;;;;;31.84;25.00;95250.09;5093231;28;20228;-91
2022/07/18 09:30:22;;;;;;;2.17;1.98;;;;;;;31.57;25.06;95207.13;5093060;28;20939;-90
2022/07/18 09:32:52;;;;;;;2.53;1.92;;;;;;;31.79;25.38;95251.91;5097101;28;20688;-91
2022/07/18 09:35:21;;;;;;;2.17;1.60;;;;;;;32.49;25.46;95372.44;5089883;28;20653;-89
2022/07/18 09:38:04;;;;;;;4.43;2.13;;;;;;;32.36;25.35;95365.75;5088437;28;20207;-91
2022/07/18 09:40:33;;;;;;;2.83;1.70;;;;;;;31.51;25.55;95240.66;5098984;28;20217;-84
2022/07/18 09:43:03;;;;;;;3.42;1.70;;;;;;;32.27;25.69;95367.28;5102031;28;20638;-89
2022/07/18 09:45:34;;;;;;;1.48;1.38;;;;;;;31.85;25.69;95309.91;5093523;28;20238;-87
2022/07/18 09:48:03;;;;;;;2.97;1.65;;;;;;;31.98;25.58;95338.53;5089534;28;20679;-85
2022/07/18 09:50:34;;;;;;;2.30;1.73;;;;;;;32.06;26.06;95362.94;5091589;28;20194;-91
2022/07/18 09:53:06;;;;;;;4.50;1.90;;;;;;;30.93;26.07;95192.13;5091026;28;20204;-92
2022/07/18 09:55:34;;;;;;;4.20;1.70;;;;;;;31.66;26.06;95312.16;5090955;28;20205;-94
2022/07/18 09:58:03;;;;;;;4.07;2.35;;;;;;;31.17;26.65;95258.63;5094617;28;20560;-91
2022/07/18 10:00:33;;;;;;;2.13;1.60;;;;;;;31.58;26.00;95322.41;5092671;28;20225;-92
2022/07/18 10:03:00;;;;;;;2.85;1.60;;;;;;;31.73;26.24;95362.97;5089216;28;20178;-86
2022/07/18 10:05:29;;;;;;;8.13;1.95;;;;;;;31.44;26.42;95319.41;5087695;28;20203;-86
2022/07/18 10:07:56;;;;;;;2.42;1.60;;;;;;;31.61;26.05;95353.66;5087859;28;20859;-86
2022/07/18 10:10:25;;;;;;;2.83;1.88;;;;;;;31.53;26.16;95349.63;5088451;28;20192;-85
2022/07/18 10:12:56;;;;;;;2.13;1.80;;;;;;;31.45;26.48;95348.22;5087526;28;20270;-85
2022/07/18 10:15:26;;;;;;;4.18;1.77;;;;;;;31.37;26.39;95338.13;5087867;28;20197;-87
2022/07/18 10:17:53;;;;;;;3.10;2.00;;;;;;;30.39;27.00;95208.81;5088048;28;20577;-87
2022/07/18 10:20:26;;;;;;;3.90;1.80;;;;;;;30.89;26.59;95279.03;5087664;28;20224;-86
2022/07/18 10:22:56;;;;;;;1.75;1.65;;;;;;;31.01;27.05;95307.94;5087722;28;20232;-86
2022/07/18 10:25:25;;;;;;;4.70;2.30;;;;;;;31.04;26.90;95315.34;5091440;28;20198;-86
2022/07/18 10:27:55;;;;;;;1.95;1.80;;;;;;;30.66;27.25;95256.34;5088719;28;20188;-88
2022/07/18 10:30:40;;;;;;;1.77;1.67;;;;;;;31.05;27.42;95319.59;5089142;28;20200;-85
2022/07/18 10:33:38;;;;;;;8.60;1.92;;;;;;;31.03;27.29;95311.09;5089256;28;20189;-83
2022/07/18 10:36:06;;;;;;;1.90;1.80;;;;;;;31.03;27.60;95320.88;5088043;28;20194;-87
2022/07/18 10:38:34;;;;;;;1.95;1.75;;;;;;;30.48;27.64;95254.84;5088847;28;20197;-89
2022/07/18 10:41:13;;;;;;;5.13;1.77;;;;;;;30.90;27.88;95316.78;5088119;28;20210;-85
2022/07/18 10:43:43;;;;;;;1.95;1.75;;;;;;;30.86;27.55;95305.94;5089075;28;20181;-84
2022/07/18 10:46:11;;;;;;;2.08;1.80;;;;;;;30.68;27.98;95287.78;5091452;28;20241;-84
2022/07/18 10:48:52;;;;;;;3.90;2.30;;;;;;;29.74;27.76;95167.44;5092027;28;20665;-86
2022/07/18 10:51:19;;;;;;;3.90;2.00;;;;;;;30.62;28.07;95289.56;5087700;28;20189;-87
2022/07/18 10:54:11;;;;;;;2.00;1.90;;;;;;;30.72;28.46;95302.91;5087479;28;20555;-86
2022/07/18 10:57:11;;;;;;;2.63;2.08;;;;;;;30.68;28.20;95312.31;5087490;28;20664;-88
2022/07/18 10:59:40;;;;;;;2.72;1.90;;;;;;;30.67;27.98;95300.19;5087890;28;20825;-85
2022/07/18 11:02:08;;;;;;;1.63;1.52;;;;;;;30.67;28.66;95292.25;5088808;28;20190;-87
2022/07/18 11:04:40;;;;;;;2.38;1.80;;;;;;;30.68;28.51;95293.84;5091313;28;20213;-87
2022/07/18 11:07:14;;;;;;;2.75;1.70;;;;;;;30.46;28.33;95261.41;5091074;28;20185;-88
2022/07/18 11:09:44;;;;;;;4.38;2.00;;;;;;;30.64;28.49;95286.66;5091051;28;20668;-86
2022/07/18 11:12:31;;;;;;;5.35;2.00;;;;;;;30.60;28.62;95281.09;5088078;28;20197;-84
2022/07/18 11:15:10;;;;;;;3.60;2.20;;;;;;;30.49;28.77;95274.91;5090925;28;20193;-82
2022/07/18 11:18:00;;;;;;;6.45;3.10;;;;;;;29.73;28.51;95173.78;5090642;28;20837;-82
2022/07/18 11:20:29;;;;;;;3.95;2.10;;;;;;;30.44;29.04;95281.97;5091089;28;20210;-87
2022/07/18 11:22:57;;;;;;;2.42;2.22;;;;;;;30.04;29.17;95216.31;5089537;28;20200;-88
2022/07/18 11:25:27;;;;;;;5.72;1.83;;;;;;;30.39;29.06;95289.84;5089966;28;20196;-88
2022/07/18 11:27:56;;;;;;;3.08;2.50;;;;;;;30.09;29.26;95242.75;5091964;28;20189;-87
2022/07/18 11:30:25;;;;;;;3.40;2.03;;;;;;;30.19;29.26;95264.03;5091984;28;20185;-89
2022/07/18 11:32:52;;;;;;;6.07;2.42;;;;;;;30.26;29.17;95267.25;5093859;28;20251;-86
2022/07/18 11:35:23;;;;;;;4.05;2.20;;;;;;;29.70;29.09;95188.22;5095988;28;20193;-89
2022/07/18 11:37:52;;;;;;;3.45;2.08;;;;;;;30.00;28.92;95227.34;5093967;28;20272;-84
2022/07/18 11:40:20;;;;;;;4.28;2.13;;;;;;;30.30;29.05;95267.56;5090478;28;20214;-88
2022/07/18 11:42:47;;;;;;;3.75;1.92;;;;;;;29.83;29.73;95189.69;5091103;28;20192;-84